Time;durP1;ratioP1;P1;durP2;ratioP2;P2;SDS_P1;SDS_P2;PMS_P1;PMS_P2;Temp;Humidity;BMP_temperature;BMP_pressure;BME280_temperature;BME280_humidity;BME280_pressure;Samples;Min_cycle;Max_cycle;Signal;HPM_P1;HPM_P2
2021/12/24 00:00:12;;;;;;;59.10;37.37;;;5.60;79.60;;;;;;4881659;29;20095;-70
2021/12/24 00:02:38;;;;;;;57.37;36.40;;;5.60;80.20;;;;;;4881916;29;20529;-72
2021/12/24 00:05:06;;;;;;;58.80;35.77;;;5.60;81.70;;;;;;4881754;29;20025;-74
2021/12/24 00:07:32;;;;;;;56.27;33.90;;;5.60;80.50;;;;;;4881604;29;20036;-71
2021/12/24 00:09:57;;;;;;;52.50;34.53;;;5.70;80.00;;;;;;4881945;29;20021;-73
2021/12/24 00:12:26;;;;;;;57.47;35.37;;;5.70;78.70;;;;;;4882018;29;20032;-73
2021/12/24 00:14:56;;;;;;;56.47;34.97;;;5.80;78.40;;;;;;4881973;29;20044;-73
2021/12/24 00:17:28;;;;;;;56.70;35.03;;;5.70;80.10;;;;;;4881652;29;20021;-71
2021/12/24 00:36:09;;;;;;;57.47;35.70;;;5.60;81.80;;;;;;4881675;29;20045;-76
2021/12/24 00:38:34;;;;;;;61.47;36.33;;;5.60;81.20;;;;;;4881588;29;20044;-75
2021/12/24 00:41:00;;;;;;;57.80;35.10;;;5.70;79.90;;;;;;4881826;29;20060;-75
2021/12/24 00:43:26;;;;;;;64.50;35.60;;;5.70;79.60;;;;;;4881452;29;20040;-74
2021/12/24 00:45:51;;;;;;;57.90;35.83;;;5.70;80.00;;;;;;4881222;29;20022;-76
2021/12/24 00:48:19;;;;;;;54.67;34.67;;;5.70;80.00;;;;;;4881482;29;20052;-75
2021/12/24 00:55:58;;;;;;;53.37;34.93;;;5.60;81.40;;;;;;4881451;29;20051;-74
2021/12/24 00:58:24;;;;;;;52.13;35.07;;;5.50;82.20;;;;;;4880934;29;20033;-75
2021/12/24 01:00:50;;;;;;;56.83;34.33;;;5.50;83.10;;;;;;4881122;29;20048;-73
2021/12/24 01:03:16;;;;;;;52.03;33.80;;;5.50;82.70;;;;;;4881066;29;20029;-75
2021/12/24 01:05:42;;;;;;;48.43;32.40;;;5.50;82.50;;;;;;4881063;29;20036;-76
2021/12/24 01:08:09;;;;;;;52.27;34.13;;;5.50;82.20;;;;;;4880951;29;20178;-75
2021/12/24 01:11:00;;;;;;;50.00;33.40;;;5.40;81.90;;;;;;4880997;29;20493;-75
2021/12/24 01:13:27;;;;;;;48.07;31.50;;;5.50;83.10;;;;;;4880278;29;20498;-74
2021/12/24 01:19:10;;;;;;;47.63;31.70;;;5.50;80.90;;;;;;4880948;29;20044;-76
2021/12/24 01:23:49;;;;;;;44.83;31.27;;;5.50;82.80;;;;;;4880765;29;20482;-75
2021/12/24 01:26:23;;;;;;;45.17;29.27;;;5.50;82.10;;;;;;4880687;29;20028;-75
2021/12/24 01:44:57;;;;;;;40.93;26.53;;;5.60;81.70;;;;;;4880508;29;20044;-75
2021/12/24 01:47:23;;;;;;;38.73;25.53;;;5.60;82.10;;;;;;4880264;29;20021;-72
2021/12/24 01:49:49;;;;;;;38.47;25.37;;;5.50;81.00;;;;;;4880279;29;20025;-75
2021/12/24 01:52:15;;;;;;;40.17;25.53;;;5.50;81.30;;;;;;4880195;29;20488;-73
2021/12/24 01:54:42;;;;;;;41.20;25.67;;;5.50;81.30;;;;;;4879922;29;20501;-73
2021/12/24 01:57:10;;;;;;;48.37;25.97;;;5.50;81.80;;;;;;4879979;29;20033;-73
2021/12/24 01:59:36;;;;;;;38.20;25.27;;;5.50;81.70;;;;;;4877282;29;20383;-73
2021/12/24 02:02:02;;;;;;;39.67;26.43;;;5.50;81.60;;;;;;4876956;29;20040;-75
2021/12/24 02:04:28;;;;;;;43.60;27.10;;;5.50;81.70;;;;;;4878000;29;20478;-73
2021/12/24 02:06:54;;;;;;;38.30;26.07;;;5.50;81.50;;;;;;4879585;29;20033;-74
2021/12/24 02:09:19;;;;;;;42.70;25.77;;;5.60;80.80;;;;;;4879586;29;20064;-74
2021/12/24 02:11:46;;;;;;;44.53;26.87;;;5.60;80.70;;;;;;4879780;29;20140;-75
2021/12/24 02:14:15;;;;;;;37.07;25.10;;;5.60;81.40;;;;;;4879662;29;20033;-74
2021/12/24 02:17:18;;;;;;;37.00;25.97;;;5.60;81.00;;;;;;4879951;29;20413;-73
2021/12/24 02:30:27;;;;;;;39.73;25.93;;;5.50;81.30;;;;;;4879456;29;20032;-74
2021/12/24 02:32:53;;;;;;;40.63;27.50;;;5.50;82.10;;;;;;4879709;29;20025;-74
2021/12/24 02:35:19;;;;;;;42.93;26.37;;;5.50;82.30;;;;;;4879337;29;20116;-74
2021/12/24 02:37:45;;;;;;;40.63;26.40;;;5.50;81.70;;;;;;4879308;29;20096;-74
2021/12/24 02:40:12;;;;;;;44.87;29.73;;;5.50;81.60;;;;;;4893695;29;20496;-74
2021/12/24 02:42:37;;;;;;;39.27;26.90;;;5.50;81.20;;;;;;4879077;29;20029;-73
2021/12/24 02:45:04;;;;;;;39.03;26.37;;;5.50;80.90;;;;;;4879522;29;20036;-71
2021/12/24 02:55:27;;;;;;;45.30;26.80;;;5.50;81.90;;;;;;4879211;29;20056;-71
2021/12/24 02:57:53;;;;;;;39.40;26.20;;;5.50;81.50;;;;;;4879504;29;20037;-73
2021/12/24 03:00:26;;;;;;;43.20;27.43;;;5.40;82.00;;;;;;4879421;29;20379;-75
2021/12/24 03:02:52;;;;;;;41.47;26.80;;;5.40;82.80;;;;;;4879440;29;20025;-73
2021/12/24 03:05:20;;;;;;;43.27;27.80;;;5.50;82.50;;;;;;4879036;29;20035;-71
2021/12/24 03:07:46;;;;;;;42.67;27.40;;;5.50;82.10;;;;;;4879164;29;20081;-72
2021/12/24 03:10:15;;;;;;;42.10;28.10;;;5.50;82.60;;;;;;4879026;29;20025;-72
2021/12/24 03:12:45;;;;;;;43.57;27.77;;;5.50;82.30;;;;;;4879064;29;20021;-73
2021/12/24 03:15:14;;;;;;;38.50;25.67;;;5.50;82.70;;;;;;4879071;29;20029;-75
2021/12/24 03:17:46;;;;;;;41.20;27.53;;;5.50;82.60;;;;;;4878866;29;20466;-74
2021/12/24 03:20:12;;;;;;;42.25;27.20;;;5.50;82.60;;;;;;4893418;29;20040;-74
2021/12/24 03:25:06;;;;;;;39.70;27.10;;;5.60;83.20;;;;;;4878988;29;20389;-73
2021/12/24 03:27:32;;;;;;;44.77;28.30;;;5.60;82.10;;;;;;4879005;29;20094;-74
2021/12/24 03:29:58;;;;;;;47.13;29.77;;;5.60;81.20;;;;;;4878894;29;20479;-74
2021/12/24 03:32:25;;;;;;;45.30;29.03;;;5.70;81.60;;;;;;4878789;29;20028;-72
2021/12/24 03:34:51;;;;;;;43.33;29.60;;;5.60;81.90;;;;;;4878878;29;20033;-72
2021/12/24 03:37:17;;;;;;;47.77;31.47;;;5.60;82.00;;;;;;4879050;29;20067;-76
2021/12/24 03:39:43;;;;;;;45.80;30.97;;;5.60;82.20;;;;;;4878929;29;20515;-74
2021/12/24 03:42:09;;;;;;;49.20;30.63;;;5.50;83.50;;;;;;4878741;29;20022;-74
2021/12/24 03:44:43;;;;;;;44.93;30.37;;;5.50;82.90;;;;;;4879114;29;20092;-71
2021/12/24 03:47:15;;;;;;;48.63;30.00;;;5.40;83.90;;;;;;4878927;29;20538;-74
2021/12/24 03:52:38;;;;;;;43.83;28.17;;;5.40;83.90;;;;;;4878927;29;20044;-73
2021/12/24 03:55:04;;;;;;;39.63;27.80;;;5.40;84.00;;;;;;4878847;29;20091;-73
2021/12/24 03:57:39;;;;;;;42.40;28.70;;;5.40;84.20;;;;;;4878757;29;20047;-72
2021/12/24 04:00:15;;;;;;;39.53;27.93;;;5.50;83.90;;;;;;4878582;29;20043;-71
2021/12/24 04:02:42;;;;;;;40.07;27.43;;;5.50;84.20;;;;;;4879253;29;20032;-75
2021/12/24 04:05:08;;;;;;;39.07;27.10;;;5.50;84.70;;;;;;4882257;29;20111;-72
2021/12/24 04:07:34;;;;;;;45.43;28.10;;;5.50;84.60;;;;;;4882476;29;20037;-74
2021/12/24 04:10:04;;;;;;;44.00;28.37;;;5.50;84.40;;;;;;4882103;29;20501;-75
2021/12/24 04:12:31;;;;;;;45.03;27.87;;;5.50;84.60;;;;;;4882445;29;20085;-75
2021/12/24 04:14:57;;;;;;;39.63;26.10;;;5.50;84.20;;;;;;4882225;29;20439;-75
2021/12/24 04:17:23;;;;;;;41.63;27.00;;;5.50;83.90;;;;;;4882055;29;20037;-73
2021/12/24 04:25:18;;;;;;;45.37;27.00;;;5.50;83.30;;;;;;4882496;29;20052;-75
2021/12/24 04:27:44;;;;;;;42.63;27.07;;;5.50;83.80;;;;;;4881755;29;20033;-74
2021/12/24 04:30:14;;;;;;;42.43;27.40;;;5.50;83.40;;;;;;4882155;29;20386;-74
2021/12/24 04:51:21;;;;;;;49.13;28.40;;;5.50;82.10;;;;;;4881555;29;20048;-73
2021/12/24 05:04:46;;;;;;;43.10;27.70;;;5.40;82.90;;;;;;4881144;29;20041;-75
2021/12/24 05:07:35;;;;;;;45.63;29.43;;;5.40;82.80;;;;;;4880997;29;20559;-74
2021/12/24 05:09:58;;;;;;;52.27;29.87;;;5.40;83.10;;;;;;4881467;29;20497;-73
2021/12/24 05:12:24;;;;;;;46.63;30.13;;;5.40;83.20;;;;;;4881072;29;20025;-74
2021/12/24 05:14:50;;;;;;;45.53;28.43;;;5.50;83.20;;;;;;4880206;29;20482;-76
2021/12/24 05:17:29;;;;;;;46.73;29.73;;;5.50;84.00;;;;;;4880922;29;20025;-72
2021/12/24 05:22:40;;;;;;;46.67;28.87;;;5.50;83.50;;;;;;4880880;29;20117;-73
2021/12/24 05:25:06;;;;;;;57.07;30.43;;;5.50;83.50;;;;;;4880774;29;20048;-74
2021/12/24 05:27:32;;;;;;;50.63;30.27;;;5.50;84.20;;;;;;4880877;29;20541;-72
2021/12/24 05:29:57;;;;;;;43.50;28.97;;;5.40;84.30;;;;;;4880609;29;20102;-75
2021/12/24 05:32:23;;;;;;;50.53;31.00;;;5.50;83.50;;;;;;4880625;29;20033;-74
2021/12/24 05:34:49;;;;;;;50.93;30.53;;;5.40;84.20;;;;;;4880760;29;20021;-72
2021/12/24 05:37:15;;;;;;;46.67;29.77;;;5.40;84.60;;;;;;4880193;29;20478;-75
2021/12/24 05:39:41;;;;;;;46.20;30.57;;;5.40;84.70;;;;;;4880413;29;20486;-74
2021/12/24 05:42:07;;;;;;;48.90;29.47;;;5.40;84.70;;;;;;4880369;29;20032;-75
2021/12/24 05:44:34;;;;;;;51.20;30.10;;;5.40;84.40;;;;;;4880708;29;20079;-74
2021/12/24 05:47:00;;;;;;;48.00;30.20;;;5.40;84.60;;;;;;4880652;29;20033;-75
2021/12/24 05:49:26;;;;;;;49.10;31.03;;;5.40;84.10;;;;;;4880490;29;20033;-70
2021/12/24 05:51:52;;;;;;;48.63;29.43;;;5.40;84.20;;;;;;4880372;29;20039;-74
2021/12/24 05:54:17;;;;;;;51.33;30.57;;;5.40;84.60;;;;;;4894569;29;20059;-74
2021/12/24 05:56:44;;;;;;;50.10;29.80;;;5.50;84.40;;;;;;4880621;29;20063;-76
2021/12/24 05:59:10;;;;;;;47.77;29.57;;;5.50;84.00;;;;;;4880498;29;20118;-73
2021/12/24 06:01:36;;;;;;;49.73;31.70;;;5.50;84.50;;;;;;4880162;29;20124;-71
2021/12/24 06:04:03;;;;;;;50.03;32.30;;;5.40;84.80;;;;;;4879880;29;20113;-74
2021/12/24 06:06:29;;;;;;;53.70;31.50;;;5.40;85.10;;;;;;4880147;29;20025;-72
2021/12/24 06:08:55;;;;;;;55.43;32.57;;;5.40;85.20;;;;;;4879809;29;20028;-73
2021/12/24 06:11:20;;;;;;;50.10;30.53;;;5.40;84.90;;;;;;4880135;29;20057;-72
2021/12/24 06:13:51;;;;;;;50.97;31.07;;;5.40;84.90;;;;;;4880221;29;20407;-72
2021/12/24 06:16:18;;;;;;;54.13;32.40;;;5.40;85.20;;;;;;4880144;29;20029;-75
2021/12/24 06:18:44;;;;;;;55.30;32.37;;;5.30;85.40;;;;;;4880162;29;20033;-75
2021/12/24 06:21:10;;;;;;;56.00;30.93;;;5.30;86.40;;;;;;4879864;29;20152;-74
2021/12/24 06:23:38;;;;;;;59.10;31.73;;;5.30;84.80;;;;;;4879854;29;20116;-73
2021/12/24 06:26:05;;;;;;;48.93;30.20;;;5.20;85.30;;;;;;4879566;29;20021;-71
2021/12/24 06:28:31;;;;;;;47.47;30.33;;;5.30;85.10;;;;;;4879717;29;20501;-73
2021/12/24 06:30:57;;;;;;;55.17;31.47;;;5.30;85.60;;;;;;4879816;29;20037;-72
2021/12/24 06:33:23;;;;;;;50.90;32.07;;;5.20;85.20;;;;;;4879608;29;20033;-72
2021/12/24 06:35:51;;;;;;;51.90;30.03;;;5.20;85.20;;;;;;4879676;29;20033;-75
2021/12/24 06:38:16;;;;;;;45.37;29.40;;;5.10;85.80;;;;;;4879627;29;20491;-72
2021/12/24 06:40:42;;;;;;;56.10;30.83;;;5.10;85.50;;;;;;4879447;29;20056;-74
2021/12/24 06:43:08;;;;;;;53.43;28.87;;;5.00;86.10;;;;;;4879372;29;20029;-73
2021/12/24 06:45:34;;;;;;;48.07;29.50;;;5.00;86.20;;;;;;4879543;29;20029;-68
2021/12/24 06:48:02;;;;;;;52.27;30.50;;;5.10;86.10;;;;;;4879361;29;20036;-71
2021/12/24 06:50:28;;;;;;;48.60;29.10;;;5.10;86.30;;;;;;4879407;29;20033;-69
2021/12/24 06:52:54;;;;;;;53.13;30.93;;;5.10;85.90;;;;;;4879136;29;20017;-72
2021/12/24 06:55:21;;;;;;;45.20;29.63;;;5.20;85.30;;;;;;4878546;29;20045;-71
2021/12/24 06:57:47;;;;;;;53.93;30.67;;;5.20;85.60;;;;;;4893544;29;20052;-74
2021/12/24 07:00:19;;;;;;;46.57;29.37;;;5.20;86.00;;;;;;4878963;29;20040;-76
2021/12/24 07:02:45;;;;;;;50.88;30.13;;;5.20;86.10;;;;;;4878710;29;20052;-73
2021/12/24 07:05:11;;;;;;;51.30;30.60;;;5.20;85.80;;;;;;4879443;29;20033;-74
2021/12/24 07:07:38;;;;;;;58.20;32.03;;;5.30;85.60;;;;;;4879355;29;20498;-75
2021/12/24 07:10:05;;;;;;;61.93;36.00;;;5.30;85.40;;;;;;4879445;29;20037;-75
2021/12/24 07:12:31;;;;;;;60.87;38.30;;;5.40;85.40;;;;;;4877949;29;20047;-69
2021/12/24 07:14:57;;;;;;;58.57;35.20;;;5.30;85.40;;;;;;4877625;29;20071;-69
2021/12/24 07:17:23;;;;;;;56.30;33.80;;;5.40;85.50;;;;;;4877877;29;20427;-69
2021/12/24 07:19:49;;;;;;;49.57;32.53;;;5.40;85.70;;;;;;4878239;29;20120;-69
2021/12/24 07:22:17;;;;;;;52.90;30.33;;;5.40;85.40;;;;;;4878756;29;20037;-69
2021/12/24 07:24:43;;;;;;;50.93;31.73;;;5.40;85.90;;;;;;4879157;29;20025;-69
2021/12/24 07:27:09;;;;;;;55.80;31.73;;;5.50;85.00;;;;;;4879185;29;20025;-68
2021/12/24 07:29:34;;;;;;;55.43;32.13;;;5.50;84.80;;;;;;4879167;29;20037;-68
2021/12/24 07:32:00;;;;;;;54.10;32.43;;;5.50;85.30;;;;;;4879147;29;20093;-68
2021/12/24 07:34:26;;;;;;;60.53;33.50;;;5.50;85.10;;;;;;4878982;29;20025;-70
2021/12/24 07:36:52;;;;;;;52.57;31.53;;;5.50;85.30;;;;;;4879373;29;20036;-69
2021/12/24 07:39:17;;;;;;;56.57;33.03;;;5.60;85.70;;;;;;4882605;29;20045;-70
2021/12/24 07:41:43;;;;;;;52.10;31.43;;;5.60;85.20;;;;;;4882961;29;20036;-69
2021/12/24 07:44:09;;;;;;;49.23;30.80;;;5.60;85.60;;;;;;4882691;29;20033;-69
2021/12/24 07:46:44;;;;;;;56.13;32.40;;;5.70;85.50;;;;;;4882614;29;20033;-70
2021/12/24 07:54:32;;;;;;;58.33;31.57;;;5.60;84.00;;;;;;4882343;29;20045;-68
2021/12/24 07:56:59;;;;;;;51.17;30.60;;;5.70;84.40;;;;;;4882230;29;20028;-68
2021/12/24 07:59:26;;;;;;;53.87;30.67;;;5.70;84.00;;;;;;4882075;29;20055;-69
2021/12/24 08:01:53;;;;;;;53.60;31.00;;;5.70;84.20;;;;;;4882332;29;20041;-68
2021/12/24 08:04:19;;;;;;;50.77;29.47;;;5.80;84.60;;;;;;4882198;29;20033;-69
2021/12/24 08:06:45;;;;;;;54.17;31.30;;;5.80;84.80;;;;;;4882054;29;20037;-69
2021/12/24 08:09:11;;;;;;;60.33;32.07;;;5.80;83.20;;;;;;4882205;29;20093;-69
2021/12/24 08:11:38;;;;;;;57.23;32.13;;;5.80;83.50;;;;;;4879004;29;20132;-67
2021/12/24 08:14:06;;;;;;;52.10;31.43;;;5.80;83.50;;;;;;4879138;29;20052;-69
2021/12/24 08:16:32;;;;;;;50.20;30.03;;;5.80;84.20;;;;;;4880675;29;20443;-67
2021/12/24 08:18:58;;;;;;;52.83;31.20;;;5.80;84.20;;;;;;4881762;29;20068;-69
2021/12/24 08:21:25;;;;;;;46.93;31.07;;;5.80;84.80;;;;;;4882019;29;20029;-69
2021/12/24 08:23:51;;;;;;;60.10;32.60;;;5.90;84.20;;;;;;4881800;29;20718;-68
2021/12/24 08:26:18;;;;;;;51.70;31.33;;;6.00;84.20;;;;;;4880602;29;20029;-68
2021/12/24 08:28:44;;;;;;;56.40;32.33;;;6.00;84.50;;;;;;4881292;29;20386;-69
2021/12/24 08:31:10;;;;;;;54.33;32.13;;;6.00;84.60;;;;;;4881538;29;20039;-68
2021/12/24 08:33:36;;;;;;;55.33;32.93;;;6.00;84.40;;;;;;4881475;29;20021;-67
2021/12/24 08:36:07;;;;;;;59.63;34.87;;;6.00;83.90;;;;;;4881681;29;20029;-69
2021/12/24 08:38:34;;;;;;;141.80;55.33;;;6.10;84.30;;;;;;4881792;29;20021;-69
2021/12/24 08:41:00;;;;;;;195.73;68.13;;;6.00;84.60;;;;;;4881095;29;20036;-69
2021/12/24 08:43:26;;;;;;;152.87;58.60;;;6.00;84.60;;;;;;4881046;29;20386;-68
2021/12/24 08:45:51;;;;;;;104.10;46.20;;;6.00;84.10;;;;;;4881535;29;20040;-69
2021/12/24 08:48:17;;;;;;;74.07;37.57;;;6.10;83.70;;;;;;4881137;29;20036;-71
2021/12/24 08:50:44;;;;;;;60.60;36.67;;;6.10;83.20;;;;;;4880413;29;20482;-69
2021/12/24 08:53:11;;;;;;;72.93;41.40;;;6.20;83.80;;;;;;4878170;29;20040;-69
2021/12/24 08:55:36;;;;;;;64.07;39.53;;;6.10;84.00;;;;;;4878420;29;20261;-68
2021/12/24 08:58:03;;;;;;;60.30;35.30;;;6.10;84.40;;;;;;4880864;29;20032;-76
2021/12/24 09:00:31;;;;;;;65.30;37.97;;;6.00;84.30;;;;;;4881246;29;20040;-73
2021/12/24 09:02:56;;;;;;;63.63;37.43;;;6.10;84.50;;;;;;4881359;29;20025;-70
2021/12/24 09:05:23;;;;;;;67.60;37.17;;;6.10;84.00;;;;;;4881072;29;20028;-69
2021/12/24 09:07:49;;;;;;;71.73;41.53;;;6.10;84.70;;;;;;4879979;29;20036;-71
2021/12/24 09:10:16;;;;;;;94.40;51.97;;;6.20;83.40;;;;;;4878361;29;20490;-71
2021/12/24 09:12:43;;;;;;;114.20;68.27;;;6.20;83.00;;;;;;4878282;29;20107;-72
2021/12/24 09:15:12;;;;;;;97.67;56.03;;;6.30;83.00;;;;;;4880666;29;20084;-71
2021/12/24 09:17:43;;;;;;;81.17;47.27;;;6.30;82.80;;;;;;4881107;29;20029;-72
2021/12/24 09:20:12;;;;;;;67.70;39.20;;;6.30;83.60;;;;;;4881013;29;20085;-70
2021/12/24 09:22:39;;;;;;;73.30;43.07;;;6.30;84.40;;;;;;4880775;29;20057;-71
2021/12/24 09:25:05;;;;;;;73.37;39.77;;;6.30;85.00;;;;;;4880863;29;20108;-69
2021/12/24 09:27:31;;;;;;;65.33;37.50;;;6.20;84.70;;;;;;4880633;29;20029;-70
2021/12/24 09:29:57;;;;;;;63.10;35.90;;;6.10;85.10;;;;;;4880913;29;20385;-69
2021/12/24 09:32:23;;;;;;;64.87;38.07;;;6.10;85.50;;;;;;4880446;29;20533;-71
2021/12/24 09:34:49;;;;;;;63.63;36.13;;;6.10;85.90;;;;;;4876244;29;20028;-72
2021/12/24 09:37:14;;;;;;;64.23;37.07;;;6.10;86.00;;;;;;4876428;29;20101;-71
2021/12/24 09:39:40;;;;;;;72.93;39.90;;;6.10;87.20;;;;;;4878707;29;20116;-74
2021/12/24 09:42:06;;;;;;;158.80;62.67;;;6.20;86.80;;;;;;4880407;29;20022;-75
2021/12/24 09:44:32;;;;;;;162.67;60.93;;;6.20;88.50;;;;;;4880514;29;20482;-72
2021/12/24 09:46:57;;;;;;;85.53;47.30;;;6.20;89.50;;;;;;4880567;29;20036;-72
2021/12/24 09:49:24;;;;;;;105.40;55.30;;;6.30;90.30;;;;;;4880014;29;20021;-75
2021/12/24 09:51:51;;;;;;;79.27;45.57;;;6.30;89.70;;;;;;4879803;29;20017;-72
2021/12/24 09:54:22;;;;;;;70.07;39.57;;;6.40;89.70;;;;;;4880441;29;20409;-72
2021/12/24 09:56:50;;;;;;;126.63;47.43;;;6.40;87.40;;;;;;4880092;29;20048;-72
2021/12/24 09:59:16;;;;;;;73.73;40.20;;;6.40;87.70;;;;;;4880034;29;20041;-72
2021/12/24 10:01:53;;;;;;;67.90;39.23;;;6.40;87.40;;;;;;4879678;29;20018;-72
2021/12/24 10:04:22;;;;;;;73.67;41.20;;;6.40;86.60;;;;;;4879879;29;20032;-72
2021/12/24 10:06:56;;;;;;;71.30;41.07;;;6.40;86.80;;;;;;4879860;29;20033;-73
2021/12/24 10:09:30;;;;;;;71.80;41.10;;;6.40;86.40;;;;;;4880157;29;20021;-72
2021/12/24 10:12:02;;;;;;;70.80;40.47;;;6.40;87.50;;;;;;4879537;29;20053;-72
2021/12/24 10:14:37;;;;;;;64.50;39.53;;;6.40;86.90;;;;;;4879683;29;20083;-72
2021/12/24 10:17:12;;;;;;;89.60;44.67;;;6.50;86.70;;;;;;4894314;29;20035;-73
2021/12/24 10:19:50;;;;;;;74.20;42.03;;;6.50;86.50;;;;;;4878710;29;20120;-73
2021/12/24 10:22:17;;;;;;;170.07;58.93;;;6.50;87.60;;;;;;4879676;29;20064;-72
2021/12/24 10:24:42;;;;;;;268.17;72.23;;;6.50;89.60;;;;;;4879939;29;20040;-72
2021/12/24 10:27:08;;;;;;;83.33;43.63;;;6.50;89.60;;;;;;4879597;29;20025;-73
2021/12/24 10:29:41;;;;;;;77.43;42.47;;;6.50;87.90;;;;;;4879554;29;20047;-72
2021/12/24 10:32:10;;;;;;;;;;;6.60;87.30;;;;;;4878688;29;20401;-72
2021/12/24 10:34:37;;;;;;;87.00;43.77;;;6.60;87.40;;;;;;4879258;29;19907;-70
2021/12/24 10:37:05;;;;;;;84.77;45.47;;;6.60;87.40;;;;;;4879728;29;20457;-72
2021/12/24 10:39:36;;;;;;;847.93;109.90;;;6.60;88.50;;;;;;4879549;29;20121;-71
2021/12/24 10:42:08;;;;;;;699.00;87.33;;;6.60;91.10;;;;;;4879491;29;20029;-71
2021/12/24 10:44:36;;;;;;;905.10;124.63;;;6.60;89.30;;;;;;4879489;29;20382;-70
2021/12/24 10:47:15;;;;;;;1912.53;159.63;;;6.70;91.80;;;;;;4879198;29;20073;-71
2021/12/24 10:55:21;;;;;;;89.80;48.63;;;6.70;88.20;;;;;;4878948;29;20155;-71
2021/12/24 10:57:53;;;;;;;216.60;57.77;;;6.70;89.10;;;;;;4879432;29;20140;-71
2021/12/24 11:00:23;;;;;;;808.27;94.80;;;6.70;90.10;;;;;;4879353;29;20041;-72
2021/12/24 11:02:52;;;;;;;76.23;43.47;;;6.70;89.90;;;;;;4878860;29;20112;-72
2021/12/24 11:05:32;;;;;;;79.43;44.20;;;6.70;90.20;;;;;;4879267;29;20033;-71
2021/12/24 11:08:00;;;;;;;74.40;42.23;;;6.70;88.60;;;;;;4893264;29;20470;-71
2021/12/24 11:10:32;;;;;;;77.83;44.23;;;6.80;88.60;;;;;;4879337;29;20033;-74
2021/12/24 11:13:08;;;;;;;78.03;44.43;;;6.70;87.10;;;;;;4880521;29;20431;-72
2021/12/24 11:15:42;;;;;;;76.57;44.13;;;6.60;86.90;;;;;;4883219;29;20111;-72
2021/12/24 11:18:13;;;;;;;76.77;43.93;;;6.70;86.70;;;;;;4883028;29;20053;-70
2021/12/24 11:20:38;;;;;;;86.47;47.93;;;6.70;86.50;;;;;;4882785;29;20474;-73
2021/12/24 11:23:06;;;;;;;80.70;47.93;;;6.70;85.80;;;;;;4882987;29;20039;-72
2021/12/24 11:25:35;;;;;;;90.37;50.87;;;6.80;85.20;;;;;;4882906;29;20025;-73
2021/12/24 11:28:02;;;;;;;92.37;53.47;;;6.80;86.20;;;;;;4882813;29;20135;-73
2021/12/24 11:30:29;;;;;;;85.37;48.20;;;6.60;87.40;;;;;;4882735;29;20108;-73
2021/12/24 11:32:55;;;;;;;85.67;48.10;;;6.60;88.00;;;;;;4882634;29;20108;-72
2021/12/24 11:35:22;;;;;;;85.53;47.43;;;6.60;88.20;;;;;;4882577;29;20057;-73
2021/12/24 11:37:49;;;;;;;83.50;47.63;;;6.60;88.30;;;;;;4882667;29;20390;-73
2021/12/24 11:40:17;;;;;;;78.17;46.27;;;6.60;88.50;;;;;;4882368;29;20045;-73
2021/12/24 11:42:46;;;;;;;84.63;48.87;;;6.60;88.70;;;;;;4882572;29;20029;-71
2021/12/24 11:45:13;;;;;;;81.93;48.90;;;6.60;88.60;;;;;;4882375;29;20044;-73
2021/12/24 11:47:39;;;;;;;81.00;48.30;;;6.60;89.70;;;;;;4882521;29;20029;-73
2021/12/24 11:50:05;;;;;;;84.90;47.13;;;6.50;90.20;;;;;;4896964;29;20029;-71
2021/12/24 11:52:32;;;;;;;83.53;48.07;;;6.50;90.30;;;;;;4882250;29;20142;-73
2021/12/24 11:54:58;;;;;;;78.53;45.67;;;6.50;90.20;;;;;;4882157;29;20080;-73
2021/12/24 11:57:25;;;;;;;100.77;54.70;;;6.60;90.30;;;;;;4882405;29;20044;-72
2021/12/24 11:59:51;;;;;;;88.87;53.37;;;6.60;90.20;;;;;;4879261;29;20052;-73
2021/12/24 12:02:47;;;;;;;93.00;54.20;;;6.60;90.10;;;;;;4879435;29;20401;-77
2021/12/24 12:05:41;;;;;;;96.00;53.87;;;6.50;90.40;;;;;;4881756;29;20049;-75
2021/12/24 12:08:25;;;;;;;91.73;54.13;;;6.50;90.50;;;;;;4881752;29;20049;-75
2021/12/24 12:11:14;;;;;;;96.63;56.60;;;6.60;90.80;;;;;;4882021;29;20443;-73
2021/12/24 12:13:55;;;;;;;94.53;56.33;;;6.60;90.80;;;;;;4881933;29;20390;-73
2021/12/24 12:16:27;;;;;;;85.03;50.43;;;6.60;90.40;;;;;;4882024;29;20028;-73
2021/12/24 12:22:14;;;;;;;105.77;56.93;;;6.70;88.90;;;;;;4881986;29;20502;-74
2021/12/24 12:25:10;;;;;;;98.03;57.90;;;6.70;90.00;;;;;;4878688;29;20040;-73
2021/12/24 12:27:44;;;;;;;88.60;51.20;;;6.60;90.90;;;;;;4879106;29;20037;-73
2021/12/24 12:30:39;;;;;;;94.57;54.47;;;6.70;90.80;;;;;;4880121;29;20506;-76
2021/12/24 12:33:20;;;;;;;90.80;50.87;;;6.70;90.10;;;;;;4881650;29;20446;-76
2021/12/24 12:35:45;;;;;;;91.90;52.93;;;6.70;90.10;;;;;;4881608;29;20037;-73
2021/12/24 12:38:33;;;;;;;92.23;56.30;;;6.80;89.50;;;;;;4910868;29;20497;-74
2021/12/24 12:41:21;;;;;;;96.37;55.27;;;6.80;89.90;;;;;;4880609;29;20142;-73
2021/12/24 12:43:49;;;;;;;92.53;54.00;;;6.80;90.00;;;;;;4878755;29;20033;-74
2021/12/24 12:46:31;;;;;;;94.50;55.00;;;6.80;90.90;;;;;;4880924;29;20024;-75
2021/12/24 12:49:03;;;;;;;99.57;56.40;;;6.80;90.90;;;;;;4887375;29;20501;-75
2021/12/24 12:51:49;;;;;;;89.87;52.93;;;6.80;91.30;;;;;;4881147;29;20033;-76
2021/12/24 12:54:33;;;;;;;89.70;52.77;;;6.70;91.00;;;;;;4895474;29;20391;-75
2021/12/24 12:57:14;;;;;;;98.33;54.90;;;6.80;91.40;;;;;;4881110;29;20033;-75
2021/12/24 13:00:07;;;;;;;93.80;52.20;;;6.70;91.80;;;;;;4881158;29;20446;-75
2021/12/24 13:03:06;;;;;;;89.73;52.37;;;6.70;92.00;;;;;;4880965;29;20033;-75
2021/12/24 13:05:33;;;;;;;105.83;56.37;;;6.70;91.80;;;;;;4881219;29;20351;-75
2021/12/24 13:08:14;;;;;;;94.67;53.63;;;6.70;92.40;;;;;;4881189;29;20029;-76
2021/12/24 13:10:40;;;;;;;100.77;55.53;;;6.70;92.20;;;;;;4895492;29;20498;-76
2021/12/24 13:13:07;;;;;;;149.43;93.17;;;6.70;91.80;;;;;;4880862;29;20505;-77
2021/12/24 13:15:46;;;;;;;108.07;59.50;;;6.80;91.60;;;;;;4880670;29;20029;-75
2021/12/24 13:18:28;;;;;;;91.63;53.17;;;6.70;92.50;;;;;;4880862;29;20044;-75
2021/12/24 13:23:43;;;;;;;90.70;54.23;;;6.70;92.60;;;;;;4895506;29;20090;-77
2021/12/24 13:26:20;;;;;;;95.77;55.23;;;6.70;92.50;;;;;;4879677;29;20025;-73
2021/12/24 13:28:57;;;;;;;94.47;53.77;;;6.70;92.70;;;;;;4880685;29;20025;-75
2021/12/24 13:31:23;;;;;;;94.63;54.87;;;6.70;92.70;;;;;;4880832;29;20029;-74
2021/12/24 13:33:49;;;;;;;88.70;53.43;;;6.70;92.70;;;;;;4880337;29;20497;-75
2021/12/24 13:36:19;;;;;;;88.93;51.83;;;6.70;92.60;;;;;;4880028;29;20025;-75
2021/12/24 13:38:45;;;;;;;92.03;52.23;;;6.70;92.50;;;;;;4880260;29;20029;-75
2021/12/24 13:41:10;;;;;;;94.30;53.23;;;6.70;92.40;;;;;;4880716;29;20029;-76
2021/12/24 13:43:37;;;;;;;86.50;49.70;;;6.70;92.60;;;;;;4880547;29;20028;-76
2021/12/24 13:46:07;;;;;;;91.87;50.33;;;6.70;92.80;;;;;;4880465;29;20040;-76
2021/12/24 13:48:46;;;;;;;77.97;46.13;;;6.70;92.90;;;;;;4879221;29;20033;-75
2021/12/24 13:56:44;;;;;;;83.90;48.10;;;6.70;92.50;;;;;;4880336;29;20077;-76
2021/12/24 13:59:13;;;;;;;82.63;45.07;;;6.70;92.30;;;;;;4880336;29;20069;-76
2021/12/24 14:01:41;;;;;;;83.20;43.03;;;6.70;92.40;;;;;;4880186;29;20063;-75
2021/12/24 14:04:08;;;;;;;73.10;41.30;;;6.70;92.40;;;;;;4880047;29;20036;-75
2021/12/24 14:06:45;;;;;;;63.27;38.27;;;6.70;92.50;;;;;;4879947;29;20088;-75
2021/12/24 14:09:22;;;;;;;52.60;33.50;;;6.70;92.50;;;;;;4880060;29;20033;-75
2021/12/24 14:11:51;;;;;;;56.80;33.07;;;6.80;92.20;;;;;;4879805;29;20025;-74
2021/12/24 14:14:31;;;;;;;65.27;35.03;;;6.80;91.60;;;;;;4894269;29;20562;-75
2021/12/24 14:17:22;;;;;;;66.50;40.23;;;6.80;91.50;;;;;;4880124;29;20033;-74
2021/12/24 14:22:23;;;;;;;88.37;48.93;;;6.80;92.70;;;;;;4879714;29;20124;-76
2021/12/24 14:24:55;;;;;;;86.80;52.90;;;6.80;92.80;;;;;;4879728;29;20040;-76
2021/12/24 14:27:24;;;;;;;100.28;57.63;;;6.80;92.10;;;;;;4879804;29;20066;-76
2021/12/24 14:30:06;;;;;;;105.27;59.83;;;6.80;91.90;;;;;;4879560;29;20060;-74
2021/12/24 14:32:34;;;;;;;100.30;57.58;;;6.80;92.10;;;;;;4879594;29;20457;-74
2021/12/24 14:35:21;;;;;;;105.27;59.57;;;6.80;91.60;;;;;;4879742;29;20459;-73
2021/12/24 14:37:57;;;;;;;117.30;64.87;;;6.80;91.60;;;;;;4879464;29;20029;-76
2021/12/24 14:40:26;;;;;;;112.53;63.00;;;6.70;92.70;;;;;;4879455;29;20076;-81
2021/12/24 14:42:53;;;;;;;111.47;62.80;;;6.70;93.00;;;;;;4879692;29;20025;-80
2021/12/24 14:45:21;;;;;;;122.13;65.77;;;6.60;93.00;;;;;;4878436;29;20426;-79
2021/12/24 14:48:10;;;;;;;120.20;66.50;;;6.60;93.00;;;;;;4879491;29;20033;-78
2021/12/24 14:50:51;;;;;;;128.50;68.47;;;6.60;93.00;;;;;;4879810;29;20060;-78
2021/12/24 14:53:20;;;;;;;118.73;66.17;;;6.60;93.20;;;;;;4893975;29;20475;-79
2021/12/24 14:55:50;;;;;;;129.90;68.70;;;6.60;93.40;;;;;;4879404;29;20172;-78